sensor_id;sensor_type;location;lat;lon;timestamp;P1;durP1;ratioP1;P2;durP2;ratioP2
15952;SDS011;8075;47.766;8.846;2022-11-15T05:02:09;3.33;;;3.13;;
15952;SDS011;8075;47.766;8.846;2022-11-15T05:04:35;3.20;;;3.00;;
15952;SDS011;8075;47.766;8.846;2022-11-15T05:07:01;4.05;;;3.65;;
15952;SDS011;8075;47.766;8.846;2022-11-15T05:09:29;4.07;;;3.70;;
15952;SDS011;8075;47.766;8.846;2022-11-15T05:11:55;3.35;;;3.05;;
15952;SDS011;8075;47.766;8.846;2022-11-15T05:14:21;3.55;;;3.20;;
15952;SDS011;8075;47.766;8.846;2022-11-15T05:16:47;4.30;;;3.90;;
15952;SDS011;8075;47.766;8.846;2022-11-15T05:19:13;4.40;;;3.78;;
15952;SDS011;8075;47.766;8.846;2022-11-15T05:21:39;5.78;;;3.40;;
15952;SDS011;8075;47.766;8.846;2022-11-15T05:24:05;3.70;;;3.40;;
15952;SDS011;8075;47.766;8.846;2022-11-15T05:26:31;3.72;;;3.42;;
15952;SDS011;8075;47.766;8.846;2022-11-15T05:28:58;3.97;;;3.67;;
15952;SDS011;8075;47.766;8.846;2022-11-15T05:31:24;3.90;;;3.60;;
15952;SDS011;8075;47.766;8.846;2022-11-15T05:33:51;5.80;;;4.10;;
15952;SDS011;8075;47.766;8.846;2022-11-15T05:36:36;4.20;;;3.38;;
15952;SDS011;8075;47.766;8.846;2022-11-15T05:39:03;4.07;;;3.40;;
15952;SDS011;8075;47.766;8.846;2022-11-15T05:41:31;4.40;;;3.20;;
15952;SDS011;8075;47.766;8.846;2022-11-15T05:43:58;3.60;;;3.30;;
15952;SDS011;8075;47.766;8.846;2022-11-15T05:46:25;4.13;;;3.40;;
15952;SDS011;8075;47.766;8.846;2022-11-15T05:48:51;3.20;;;2.90;;
15952;SDS011;8075;47.766;8.846;2022-11-15T05:51:18;4.18;;;3.28;;
15952;SDS011;8075;47.766;8.846;2022-11-15T05:53:45;3.67;;;3.20;;
15952;SDS011;8075;47.766;8.846;2022-11-15T05:56:12;3.47;;;3.17;;
15952;SDS011;8075;47.766;8.846;2022-11-15T05:58:38;4.70;;;3.10;;
15952;SDS011;8075;47.766;8.846;2022-11-15T06:01:04;4.10;;;3.80;;
15952;SDS011;8075;47.766;8.846;2022-11-15T06:03:30;3.90;;;3.50;;
15952;SDS011;8075;47.766;8.846;2022-11-15T06:05:56;5.60;;;4.23;;
15952;SDS011;8075;47.766;8.846;2022-11-15T06:08:22;4.05;;;3.75;;
15952;SDS011;8075;47.766;8.846;2022-11-15T06:10:48;4.67;;;3.90;;
15952;SDS011;8075;47.766;8.846;2022-11-15T06:13:14;5.85;;;4.13;;
15952;SDS011;8075;47.766;8.846;2022-11-15T06:15:40;4.68;;;3.90;;
15952;SDS011;8075;47.766;8.846;2022-11-15T06:18:06;4.88;;;4.35;;
15952;SDS011;8075;47.766;8.846;2022-11-15T06:20:32;5.22;;;3.92;;
15952;SDS011;8075;47.766;8.846;2022-11-15T06:22:58;5.95;;;5.10;;
15952;SDS011;8075;47.766;8.846;2022-11-15T06:25:25;5.97;;;5.30;;
15952;SDS011;8075;47.766;8.846;2022-11-15T06:27:52;4.60;;;4.20;;
15952;SDS011;8075;47.766;8.846;2022-11-15T06:30:18;4.70;;;3.67;;
15952;SDS011;8075;47.766;8.846;2022-11-15T06:32:44;5.00;;;4.60;;
15952;SDS011;8075;47.766;8.846;2022-11-15T06:35:10;3.70;;;3.28;;
15952;SDS011;8075;47.766;8.846;2022-11-15T06:37:36;4.88;;;4.38;;
15952;SDS011;8075;47.766;8.846;2022-11-15T06:40:02;4.63;;;3.83;;
15952;SDS011;8075;47.766;8.846;2022-11-15T06:42:28;4.90;;;4.40;;
15952;SDS011;8075;47.766;8.846;2022-11-15T06:44:54;6.30;;;5.70;;
15952;SDS011;8075;47.766;8.846;2022-11-15T06:47:20;9.73;;;8.82;;
15952;SDS011;8075;47.766;8.846;2022-11-15T06:49:46;6.75;;;4.32;;
15952;SDS011;8075;47.766;8.846;2022-11-15T06:52:12;4.57;;;4.18;;
15952;SDS011;8075;47.766;8.846;2022-11-15T06:54:38;9.13;;;7.90;;
15952;SDS011;8075;47.766;8.846;2022-11-15T06:57:04;5.80;;;4.40;;
15952;SDS011;8075;47.766;8.846;2022-11-15T06:59:30;16.57;;;12.97;;
15952;SDS011;8075;47.766;8.846;2022-11-15T07:01:56;4.20;;;3.90;;
15952;SDS011;8075;47.766;8.846;2022-11-15T07:04:22;5.53;;;3.95;;
15952;SDS011;8075;47.766;8.846;2022-11-15T07:06:48;5.45;;;4.35;;
15952;SDS011;8075;47.766;8.846;2022-11-15T07:09:14;4.68;;;3.97;;
15952;SDS011;8075;47.766;8.846;2022-11-15T07:11:40;4.03;;;3.63;;
15952;SDS011;8075;47.766;8.846;2022-11-15T07:14:06;5.22;;;4.82;;
15952;SDS011;8075;47.766;8.846;2022-11-15T07:16:32;5.18;;;4.53;;
15952;SDS011;8075;47.766;8.846;2022-11-15T07:18:58;6.22;;;5.72;;
15952;SDS011;8075;47.766;8.846;2022-11-15T07:21:24;6.20;;;5.60;;
15952;SDS011;8075;47.766;8.846;2022-11-15T07:23:50;4.33;;;4.03;;
15952;SDS011;8075;47.766;8.846;2022-11-15T07:26:16;4.32;;;3.92;;
15952;SDS011;8075;47.766;8.846;2022-11-15T07:28:42;4.38;;;3.97;;
15952;SDS011;8075;47.766;8.846;2022-11-15T07:31:08;4.43;;;4.07;;
15952;SDS011;8075;47.766;8.846;2022-11-15T07:33:34;4.43;;;3.93;;
15952;SDS011;8075;47.766;8.846;2022-11-15T07:36:01;6.05;;;4.30;;
15952;SDS011;8075;47.766;8.846;2022-11-15T07:38:28;7.13;;;4.20;;
15952;SDS011;8075;47.766;8.846;2022-11-15T07:40:57;5.32;;;4.50;;
15952;SDS011;8075;47.766;8.846;2022-11-15T07:43:24;7.05;;;5.15;;
15952;SDS011;8075;47.766;8.846;2022-11-15T07:45:52;9.45;;;6.22;;
15952;SDS011;8075;47.766;8.846;2022-11-15T07:48:18;8.10;;;6.35;;
15952;SDS011;8075;47.766;8.846;2022-11-15T07:50:44;8.85;;;6.32;;
15952;SDS011;8075;47.766;8.846;2022-11-15T07:53:10;9.07;;;6.65;;
15952;SDS011;8075;47.766;8.846;2022-11-15T07:55:37;6.60;;;5.93;;
15952;SDS011;8075;47.766;8.846;2022-11-15T07:58:04;7.07;;;5.50;;
15952;SDS011;8075;47.766;8.846;2022-11-15T08:00:30;6.53;;;5.10;;
15952;SDS011;8075;47.766;8.846;2022-11-15T08:03:04;5.93;;;5.32;;
15952;SDS011;8075;47.766;8.846;2022-11-15T08:05:30;9.18;;;7.00;;
15952;SDS011;8075;47.766;8.846;2022-11-15T08:07:56;8.82;;;6.82;;
15952;SDS011;8075;47.766;8.846;2022-11-15T08:10:22;7.22;;;6.53;;
15952;SDS011;8075;47.766;8.846;2022-11-15T08:12:48;8.10;;;6.70;;
15952;SDS011;8075;47.766;8.846;2022-11-15T08:15:21;8.10;;;7.30;;
15952;SDS011;8075;47.766;8.846;2022-11-15T08:17:47;10.13;;;8.02;;
15952;SDS011;8075;47.766;8.846;2022-11-15T08:20:18;12.90;;;8.27;;
15952;SDS011;8075;47.766;8.846;2022-11-15T08:22:44;10.45;;;8.93;;
15952;SDS011;8075;47.766;8.846;2022-11-15T08:25:10;14.57;;;9.73;;
15952;SDS011;8075;47.766;8.846;2022-11-15T08:27:36;20.73;;;12.63;;
15952;SDS011;8075;47.766;8.846;2022-11-15T08:30:02;22.33;;;13.15;;
15952;SDS011;8075;47.766;8.846;2022-11-15T08:32:30;31.80;;;16.45;;
15952;SDS011;8075;47.766;8.846;2022-11-15T08:34:56;65.45;;;35.38;;
15952;SDS011;8075;47.766;8.846;2022-11-15T08:37:22;122.18;;;65.43;;
15952;SDS011;8075;47.766;8.846;2022-11-15T08:39:47;121.03;;;66.10;;
15952;SDS011;8075;47.766;8.846;2022-11-15T08:42:14;83.95;;;43.13;;
15952;SDS011;8075;47.766;8.846;2022-11-15T08:44:41;90.47;;;50.70;;
15952;SDS011;8075;47.766;8.846;2022-11-15T08:47:07;49.20;;;26.38;;
15952;SDS011;8075;47.766;8.846;2022-11-15T08:49:33;37.85;;;20.33;;
15952;SDS011;8075;47.766;8.846;2022-11-15T08:51:59;40.25;;;21.20;;
15952;SDS011;8075;47.766;8.846;2022-11-15T08:54:25;44.87;;;22.20;;
15952;SDS011;8075;47.766;8.846;2022-11-15T08:56:51;50.95;;;25.40;;
15952;SDS011;8075;47.766;8.846;2022-11-15T08:59:17;52.15;;;25.48;;
15952;SDS011;8075;47.766;8.846;2022-11-15T09:01:43;45.90;;;24.42;;
15952;SDS011;8075;47.766;8.846;2022-11-15T09:04:09;38.92;;;23.05;;
15952;SDS011;8075;47.766;8.846;2022-11-15T09:06:35;40.42;;;23.65;;
15952;SDS011;8075;47.766;8.846;2022-11-15T09:09:02;48.33;;;25.80;;
15952;SDS011;8075;47.766;8.846;2022-11-15T09:11:28;47.42;;;26.02;;
15952;SDS011;8075;47.766;8.846;2022-11-15T09:13:54;43.03;;;24.70;;
15952;SDS011;8075;47.766;8.846;2022-11-15T09:16:20;44.83;;;25.40;;
15952;SDS011;8075;47.766;8.846;2022-11-15T09:18:46;42.10;;;25.48;;
15952;SDS011;8075;47.766;8.846;2022-11-15T09:21:12;62.37;;;32.40;;
15952;SDS011;8075;47.766;8.846;2022-11-15T09:23:38;60.55;;;32.22;;
15952;SDS011;8075;47.766;8.846;2022-11-15T09:26:05;57.35;;;31.27;;
15952;SDS011;8075;47.766;8.846;2022-11-15T09:28:31;49.72;;;28.85;;
15952;SDS011;8075;47.766;8.846;2022-11-15T09:30:58;65.00;;;34.40;;
15952;SDS011;8075;47.766;8.846;2022-11-15T09:33:24;64.57;;;34.97;;
15952;SDS011;8075;47.766;8.846;2022-11-15T09:35:50;64.63;;;33.83;;
15952;SDS011;8075;47.766;8.846;2022-11-15T09:38:16;59.60;;;33.38;;
15952;SDS011;8075;47.766;8.846;2022-11-15T09:40:42;65.57;;;34.25;;
15952;SDS011;8075;47.766;8.846;2022-11-15T09:51:00;52.10;;;29.10;;
15952;SDS011;8075;47.766;8.846;2022-11-15T09:53:34;47.55;;;28.60;;
15952;SDS011;8075;47.766;8.846;2022-11-15T09:56:03;52.50;;;30.03;;
15952;SDS011;8075;47.766;8.846;2022-11-15T09:58:36;49.53;;;32.08;;
15952;SDS011;8075;47.766;8.846;2022-11-15T10:01:06;47.45;;;29.25;;
15952;SDS011;8075;47.766;8.846;2022-11-15T10:03:34;48.13;;;29.30;;
15952;SDS011;8075;47.766;8.846;2022-11-15T10:06:01;45.95;;;28.00;;
15952;SDS011;8075;47.766;8.846;2022-11-15T10:08:44;42.20;;;26.87;;
15952;SDS011;8075;47.766;8.846;2022-11-15T10:11:19;44.97;;;27.50;;
15952;SDS011;8075;47.766;8.846;2022-11-15T10:13:47;39.05;;;26.42;;
15952;SDS011;8075;47.766;8.846;2022-11-15T10:16:19;33.20;;;23.80;;
15952;SDS011;8075;47.766;8.846;2022-11-15T10:19:03;44.60;;;27.20;;
15952;SDS011;8075;47.766;8.846;2022-11-15T10:22:13;36.33;;;24.23;;
15952;SDS011;8075;47.766;8.846;2022-11-15T10:24:19;38.35;;;27.08;;
15952;SDS011;8075;47.766;8.846;2022-11-15T10:26:46;46.25;;;29.85;;
15952;SDS011;8075;47.766;8.846;2022-11-15T10:29:17;45.40;;;30.80;;
15952;SDS011;8075;47.766;8.846;2022-11-15T10:31:43;56.30;;;33.90;;
15952;SDS011;8075;47.766;8.846;2022-11-15T10:34:16;41.60;;;29.45;;
15952;SDS011;8075;47.766;8.846;2022-11-15T10:36:44;40.13;;;28.30;;
15952;SDS011;8075;47.766;8.846;2022-11-15T10:39:13;47.15;;;30.23;;
15952;SDS011;8075;47.766;8.846;2022-11-15T10:41:40;54.00;;;34.13;;
15952;SDS011;8075;47.766;8.846;2022-11-15T10:46:36;57.30;;;35.53;;
15952;SDS011;8075;47.766;8.846;2022-11-15T10:49:12;61.20;;;36.90;;
15952;SDS011;8075;47.766;8.846;2022-11-15T10:51:47;64.50;;;36.65;;
15952;SDS011;8075;47.766;8.846;2022-11-15T10:54:14;68.10;;;39.35;;
15952;SDS011;8075;47.766;8.846;2022-11-15T10:56:41;60.75;;;37.60;;
15952;SDS011;8075;47.766;8.846;2022-11-15T10:59:14;62.83;;;37.70;;
15952;SDS011;8075;47.766;8.846;2022-11-15T11:01:47;63.72;;;38.40;;
15952;SDS011;8075;47.766;8.846;2022-11-15T11:04:13;76.63;;;43.70;;
15952;SDS011;8075;47.766;8.846;2022-11-15T11:07:19;69.13;;;41.17;;
15952;SDS011;8075;47.766;8.846;2022-11-15T11:09:32;69.70;;;42.40;;
15952;SDS011;8075;47.766;8.846;2022-11-15T11:11:59;76.25;;;43.85;;
15952;SDS011;8075;47.766;8.846;2022-11-15T11:14:26;89.18;;;50.25;;
15952;SDS011;8075;47.766;8.846;2022-11-15T11:25:19;68.07;;;42.55;;
15952;SDS011;8075;47.766;8.846;2022-11-15T11:27:51;61.15;;;38.35;;
15952;SDS011;8075;47.766;8.846;2022-11-15T11:30:23;60.70;;;38.95;;
15952;SDS011;8075;47.766;8.846;2022-11-15T11:35:51;59.27;;;38.63;;
15952;SDS011;8075;47.766;8.846;2022-11-15T11:43:30;36.80;;;26.63;;
15952;SDS011;8075;47.766;8.846;2022-11-15T11:50:51;31.13;;;23.47;;
15952;SDS011;8075;47.766;8.846;2022-11-15T11:53:22;29.95;;;23.10;;
15952;SDS011;8075;47.766;8.846;2022-11-15T11:55:54;30.05;;;23.95;;
15952;SDS011;8075;47.766;8.846;2022-11-15T11:58:43;30.42;;;23.48;;
15952;SDS011;8075;47.766;8.846;2022-11-15T12:01:13;28.30;;;22.73;;
15952;SDS011;8075;47.766;8.846;2022-11-15T12:06:21;23.77;;;19.17;;
15952;SDS011;8075;47.766;8.846;2022-11-15T12:11:43;19.33;;;16.77;;
15952;SDS011;8075;47.766;8.846;2022-11-15T12:14:20;25.90;;;20.67;;
15952;SDS011;8075;47.766;8.846;2022-11-15T12:16:47;27.95;;;23.25;;
15952;SDS011;8075;47.766;8.846;2022-11-15T12:19:13;27.55;;;22.52;;
15952;SDS011;8075;47.766;8.846;2022-11-15T12:21:47;34.33;;;25.20;;
15952;SDS011;8075;47.766;8.846;2022-11-15T12:24:19;35.45;;;25.20;;
15952;SDS011;8075;47.766;8.846;2022-11-15T12:29:35;38.57;;;27.60;;
15952;SDS011;8075;47.766;8.846;2022-11-15T12:32:02;33.78;;;26.85;;
15952;SDS011;8075;47.766;8.846;2022-11-15T12:36:55;31.88;;;23.77;;
15952;SDS011;8075;47.766;8.846;2022-11-15T12:39:21;28.38;;;22.17;;
15952;SDS011;8075;47.766;8.846;2022-11-15T12:47:04;24.30;;;20.17;;
15952;SDS011;8075;47.766;8.846;2022-11-15T12:49:47;24.42;;;19.30;;
15952;SDS011;8075;47.766;8.846;2022-11-15T12:52:14;27.98;;;21.60;;
15952;SDS011;8075;47.766;8.846;2022-11-15T12:59:48;25.23;;;20.83;;
15952;SDS011;8075;47.766;8.846;2022-11-15T13:02:24;29.67;;;21.05;;
15952;SDS011;8075;47.766;8.846;2022-11-15T13:04:51;26.48;;;20.48;;
15952;SDS011;8075;47.766;8.846;2022-11-15T13:17:36;24.30;;;19.63;;
15952;SDS011;8075;47.766;8.846;2022-11-15T13:22:40;25.90;;;20.30;;
15952;SDS011;8075;47.766;8.846;2022-11-15T13:25:37;24.40;;;20.85;;
15952;SDS011;8075;47.766;8.846;2022-11-15T13:30:38;23.30;;;20.27;;
15952;SDS011;8075;47.766;8.846;2022-11-15T13:33:14;23.85;;;20.85;;
15952;SDS011;8075;47.766;8.846;2022-11-15T13:35:41;22.48;;;18.80;;
15952;SDS011;8075;47.766;8.846;2022-11-15T13:38:17;23.17;;;18.85;;
15952;SDS011;8075;47.766;8.846;2022-11-15T13:40:44;22.10;;;19.70;;
15952;SDS011;8075;47.766;8.846;2022-11-15T13:43:17;22.63;;;19.15;;
15952;SDS011;8075;47.766;8.846;2022-11-15T13:48:33;21.73;;;18.70;;
15952;SDS011;8075;47.766;8.846;2022-11-15T13:51:18;19.35;;;17.27;;
15952;SDS011;8075;47.766;8.846;2022-11-15T13:53:46;23.90;;;19.35;;
15952;SDS011;8075;47.766;8.846;2022-11-15T13:56:14;21.70;;;19.38;;
15952;SDS011;8075;47.766;8.846;2022-11-15T13:58:41;20.15;;;17.85;;
15952;SDS011;8075;47.766;8.846;2022-11-15T14:01:08;17.65;;;15.77;;
15952;SDS011;8075;47.766;8.846;2022-11-15T14:03:46;18.30;;;16.42;;
15952;SDS011;8075;47.766;8.846;2022-11-15T14:06:17;18.27;;;16.48;;
15952;SDS011;8075;47.766;8.846;2022-11-15T14:11:23;20.10;;;18.00;;
15952;SDS011;8075;47.766;8.846;2022-11-15T14:16:37;19.75;;;16.88;;
15952;SDS011;8075;47.766;8.846;2022-11-15T14:19:04;17.57;;;15.87;;
15952;SDS011;8075;47.766;8.846;2022-11-15T14:21:31;16.63;;;14.88;;
15952;SDS011;8075;47.766;8.846;2022-11-15T14:24:16;15.80;;;14.30;;
15952;SDS011;8075;47.766;8.846;2022-11-15T14:26:42;15.85;;;14.38;;
15952;SDS011;8075;47.766;8.846;2022-11-15T14:29:27;18.83;;;16.80;;
15952;SDS011;8075;47.766;8.846;2022-11-15T14:31:53;19.33;;;17.02;;
15952;SDS011;8075;47.766;8.846;2022-11-15T14:34:20;18.98;;;17.00;;
15952;SDS011;8075;47.766;8.846;2022-11-15T14:36:47;18.00;;;16.15;;
15952;SDS011;8075;47.766;8.846;2022-11-15T14:39:13;17.33;;;15.65;;
15952;SDS011;8075;47.766;8.846;2022-11-15T14:41:39;15.63;;;14.17;;
15952;SDS011;8075;47.766;8.846;2022-11-15T14:44:05;16.30;;;14.80;;
15952;SDS011;8075;47.766;8.846;2022-11-15T14:46:32;16.98;;;15.25;;
15952;SDS011;8075;47.766;8.846;2022-11-15T14:48:57;17.80;;;15.93;;
15952;SDS011;8075;47.766;8.846;2022-11-15T14:51:23;16.58;;;14.85;;
15952;SDS011;8075;47.766;8.846;2022-11-15T14:53:51;17.60;;;15.75;;
15952;SDS011;8075;47.766;8.846;2022-11-15T14:56:17;15.60;;;14.00;;
15952;SDS011;8075;47.766;8.846;2022-11-15T14:58:43;16.52;;;14.55;;
15952;SDS011;8075;47.766;8.846;2022-11-15T15:01:13;19.85;;;17.00;;
15952;SDS011;8075;47.766;8.846;2022-11-15T15:03:39;18.08;;;16.25;;
15952;SDS011;8075;47.766;8.846;2022-11-15T15:06:05;18.55;;;16.58;;
15952;SDS011;8075;47.766;8.846;2022-11-15T15:08:33;20.98;;;17.20;;
15952;SDS011;8075;47.766;8.846;2022-11-15T15:10:59;17.93;;;16.13;;
15952;SDS011;8075;47.766;8.846;2022-11-15T15:13:25;18.52;;;16.35;;
15952;SDS011;8075;47.766;8.846;2022-11-15T15:15:53;18.47;;;15.50;;
15952;SDS011;8075;47.766;8.846;2022-11-15T15:18:19;17.25;;;15.52;;
15952;SDS011;8075;47.766;8.846;2022-11-15T15:20:47;17.63;;;15.80;;
15952;SDS011;8075;47.766;8.846;2022-11-15T15:23:15;17.65;;;15.77;;
15952;SDS011;8075;47.766;8.846;2022-11-15T15:25:42;17.17;;;15.30;;
15952;SDS011;8075;47.766;8.846;2022-11-15T15:28:08;18.63;;;15.53;;
15952;SDS011;8075;47.766;8.846;2022-11-15T15:30:34;16.65;;;14.95;;
15952;SDS011;8075;47.766;8.846;2022-11-15T15:33:00;16.25;;;14.57;;
15952;SDS011;8075;47.766;8.846;2022-11-15T15:35:29;16.23;;;14.60;;
15952;SDS011;8075;47.766;8.846;2022-11-15T15:37:55;16.17;;;14.55;;
15952;SDS011;8075;47.766;8.846;2022-11-15T15:40:22;17.40;;;15.50;;
15952;SDS011;8075;47.766;8.846;2022-11-15T15:42:49;15.02;;;13.63;;
15952;SDS011;8075;47.766;8.846;2022-11-15T15:45:15;15.60;;;14.05;;
15952;SDS011;8075;47.766;8.846;2022-11-15T15:47:42;16.48;;;14.85;;
15952;SDS011;8075;47.766;8.846;2022-11-15T15:50:31;17.15;;;15.45;;
15952;SDS011;8075;47.766;8.846;2022-11-15T15:52:55;17.00;;;15.40;;
15952;SDS011;8075;47.766;8.846;2022-11-15T15:55:21;15.07;;;13.77;;
15952;SDS011;8075;47.766;8.846;2022-11-15T15:57:47;15.30;;;13.90;;
15952;SDS011;8075;47.766;8.846;2022-11-15T16:00:14;14.50;;;13.10;;
15952;SDS011;8075;47.766;8.846;2022-11-15T16:02:40;14.60;;;13.10;;
15952;SDS011;8075;47.766;8.846;2022-11-15T16:05:06;14.10;;;12.70;;
15952;SDS011;8075;47.766;8.846;2022-11-15T16:07:33;14.45;;;13.05;;
15952;SDS011;8075;47.766;8.846;2022-11-15T16:09:59;13.52;;;12.32;;
15952;SDS011;8075;47.766;8.846;2022-11-15T16:12:25;13.68;;;12.48;;
15952;SDS011;8075;47.766;8.846;2022-11-15T16:14:51;14.13;;;12.82;;
15952;SDS011;8075;47.766;8.846;2022-11-15T16:17:20;14.55;;;13.23;;
15952;SDS011;8075;47.766;8.846;2022-11-15T16:19:46;20.77;;;17.13;;
15952;SDS011;8075;47.766;8.846;2022-11-15T16:22:12;18.52;;;16.60;;
15952;SDS011;8075;47.766;8.846;2022-11-15T16:24:38;17.58;;;15.73;;
15952;SDS011;8075;47.766;8.846;2022-11-15T16:27:18;19.42;;;16.42;;
15952;SDS011;8075;47.766;8.846;2022-11-15T16:29:45;17.42;;;15.70;;
15952;SDS011;8075;47.766;8.846;2022-11-15T16:32:11;17.30;;;15.60;;
15952;SDS011;8075;47.766;8.846;2022-11-15T16:34:37;16.33;;;14.82;;
15952;SDS011;8075;47.766;8.846;2022-11-15T16:37:03;16.58;;;14.98;;
15952;SDS011;8075;47.766;8.846;2022-11-15T16:39:30;18.43;;;16.53;;
15952;SDS011;8075;47.766;8.846;2022-11-15T16:41:57;19.85;;;17.88;;
15952;SDS011;8075;47.766;8.846;2022-11-15T16:44:23;23.42;;;20.35;;
15952;SDS011;8075;47.766;8.846;2022-11-15T16:46:49;21.58;;;18.30;;
15952;SDS011;8075;47.766;8.846;2022-11-15T16:49:16;21.50;;;17.58;;
15952;SDS011;8075;47.766;8.846;2022-11-15T16:51:46;22.25;;;18.05;;
15952;SDS011;8075;47.766;8.846;2022-11-15T16:54:12;18.83;;;16.55;;
15952;SDS011;8075;47.766;8.846;2022-11-15T16:56:39;20.92;;;17.13;;
15952;SDS011;8075;47.766;8.846;2022-11-15T16:59:05;20.63;;;16.20;;
15952;SDS011;8075;47.766;8.846;2022-11-15T17:03:57;17.27;;;15.48;;
15952;SDS011;8075;47.766;8.846;2022-11-15T17:06:24;20.02;;;17.13;;
15952;SDS011;8075;47.766;8.846;2022-11-15T17:08:51;21.25;;;18.42;;
15952;SDS011;8075;47.766;8.846;2022-11-15T17:11:20;24.83;;;19.38;;
15952;SDS011;8075;47.766;8.846;2022-11-15T17:13:46;21.58;;;18.38;;
15952;SDS011;8075;47.766;8.846;2022-11-15T17:16:14;23.17;;;19.83;;
15952;SDS011;8075;47.766;8.846;2022-11-15T17:18:40;22.90;;;20.52;;
15952;SDS011;8075;47.766;8.846;2022-11-15T17:21:13;27.67;;;21.85;;
15952;SDS011;8075;47.766;8.846;2022-11-15T17:23:39;25.92;;;21.85;;
15952;SDS011;8075;47.766;8.846;2022-11-15T17:26:06;29.60;;;25.48;;
15952;SDS011;8075;47.766;8.846;2022-11-15T17:28:32;28.70;;;24.95;;
15952;SDS011;8075;47.766;8.846;2022-11-15T17:30:58;24.45;;;21.33;;
15952;SDS011;8075;47.766;8.846;2022-11-15T17:33:24;25.00;;;21.50;;
15952;SDS011;8075;47.766;8.846;2022-11-15T17:35:54;28.67;;;22.42;;
15952;SDS011;8075;47.766;8.846;2022-11-15T17:38:20;25.33;;;20.77;;
15952;SDS011;8075;47.766;8.846;2022-11-15T17:40:46;24.42;;;19.45;;
15952;SDS011;8075;47.766;8.846;2022-11-15T17:43:12;23.35;;;19.77;;
15952;SDS011;8075;47.766;8.846;2022-11-15T17:45:41;20.95;;;18.75;;
15952;SDS011;8075;47.766;8.846;2022-11-15T17:48:07;22.58;;;19.42;;
15952;SDS011;8075;47.766;8.846;2022-11-15T17:50:33;23.48;;;20.98;;
15952;SDS011;8075;47.766;8.846;2022-11-15T17:52:59;22.08;;;19.73;;
15952;SDS011;8075;47.766;8.846;2022-11-15T17:55:25;24.55;;;19.85;;
15952;SDS011;8075;47.766;8.846;2022-11-15T17:57:51;22.60;;;20.23;;
15952;SDS011;8075;47.766;8.846;2022-11-15T18:00:17;24.90;;;20.88;;
15952;SDS011;8075;47.766;8.846;2022-11-15T18:02:45;25.85;;;21.13;;
15952;SDS011;8075;47.766;8.846;2022-11-15T18:05:11;21.45;;;19.15;;
15952;SDS011;8075;47.766;8.846;2022-11-15T18:07:37;26.38;;;21.27;;
15952;SDS011;8075;47.766;8.846;2022-11-15T18:10:03;23.50;;;19.77;;
15952;SDS011;8075;47.766;8.846;2022-11-15T18:12:29;21.27;;;19.10;;
15952;SDS011;8075;47.766;8.846;2022-11-15T18:14:55;22.47;;;20.03;;
15952;SDS011;8075;47.766;8.846;2022-11-15T18:17:22;27.63;;;21.80;;
15952;SDS011;8075;47.766;8.846;2022-11-15T18:19:48;29.15;;;22.83;;
15952;SDS011;8075;47.766;8.846;2022-11-15T18:22:14;28.00;;;23.90;;
15952;SDS011;8075;47.766;8.846;2022-11-15T18:24:40;25.80;;;22.40;;
15952;SDS011;8075;47.766;8.846;2022-11-15T18:27:07;27.02;;;22.92;;
15952;SDS011;8075;47.766;8.846;2022-11-15T18:29:33;25.48;;;21.58;;
15952;SDS011;8075;47.766;8.846;2022-11-15T18:32:02;26.30;;;21.92;;
15952;SDS011;8075;47.766;8.846;2022-11-15T18:34:30;28.75;;;23.65;;
15952;SDS011;8075;47.766;8.846;2022-11-15T18:36:58;27.65;;;23.38;;
15952;SDS011;8075;47.766;8.846;2022-11-15T18:39:24;28.20;;;23.15;;
15952;SDS011;8075;47.766;8.846;2022-11-15T18:41:50;29.33;;;25.30;;
15952;SDS011;8075;47.766;8.846;2022-11-15T18:44:16;32.38;;;26.40;;
15952;SDS011;8075;47.766;8.846;2022-11-15T18:46:42;30.45;;;26.50;;
15952;SDS011;8075;47.766;8.846;2022-11-15T18:49:09;32.20;;;25.88;;
15952;SDS011;8075;47.766;8.846;2022-11-15T18:51:36;26.38;;;22.52;;
15952;SDS011;8075;47.766;8.846;2022-11-15T18:54:05;24.38;;;21.83;;
15952;SDS011;8075;47.766;8.846;2022-11-15T18:56:32;24.33;;;21.70;;
15952;SDS011;8075;47.766;8.846;2022-11-15T18:58:58;24.00;;;20.33;;
15952;SDS011;8075;47.766;8.846;2022-11-15T19:01:26;22.23;;;19.40;;
15952;SDS011;8075;47.766;8.846;2022-11-15T19:03:53;23.85;;;18.15;;
15952;SDS011;8075;47.766;8.846;2022-11-15T19:06:24;20.23;;;18.20;;
15952;SDS011;8075;47.766;8.846;2022-11-15T19:08:51;19.57;;;17.47;;
15952;SDS011;8075;47.766;8.846;2022-11-15T19:11:19;20.55;;;18.45;;
15952;SDS011;8075;47.766;8.846;2022-11-15T19:13:47;21.80;;;19.50;;
15952;SDS011;8075;47.766;8.846;2022-11-15T19:16:17;25.15;;;19.35;;
15952;SDS011;8075;47.766;8.846;2022-11-15T19:18:43;22.25;;;19.05;;
15952;SDS011;8075;47.766;8.846;2022-11-15T19:21:10;20.42;;;17.60;;
15952;SDS011;8075;47.766;8.846;2022-11-15T19:23:37;21.10;;;18.95;;
15952;SDS011;8075;47.766;8.846;2022-11-15T19:26:04;16.00;;;14.40;;
15952;SDS011;8075;47.766;8.846;2022-11-15T19:28:30;16.15;;;14.68;;
15952;SDS011;8075;47.766;8.846;2022-11-15T19:31:03;16.33;;;14.63;;
15952;SDS011;8075;47.766;8.846;2022-11-15T19:33:31;16.15;;;14.55;;
15952;SDS011;8075;47.766;8.846;2022-11-15T19:36:04;17.67;;;16.03;;
15952;SDS011;8075;47.766;8.846;2022-11-15T19:38:31;17.50;;;15.80;;
15952;SDS011;8075;47.766;8.846;2022-11-15T19:41:04;15.93;;;14.32;;
15952;SDS011;8075;47.766;8.846;2022-11-15T19:43:30;16.35;;;14.90;;
15952;SDS011;8075;47.766;8.846;2022-11-15T19:45:57;17.20;;;15.23;;
15952;SDS011;8075;47.766;8.846;2022-11-15T19:48:23;17.60;;;15.88;;
15952;SDS011;8075;47.766;8.846;2022-11-15T19:50:49;16.73;;;14.90;;
15952;SDS011;8075;47.766;8.846;2022-11-15T19:53:16;19.10;;;14.93;;
15952;SDS011;8075;47.766;8.846;2022-11-15T19:55:42;16.05;;;14.35;;
15952;SDS011;8075;47.766;8.846;2022-11-15T19:58:13;19.92;;;15.93;;
15952;SDS011;8075;47.766;8.846;2022-11-15T20:00:39;17.13;;;15.33;;
15952;SDS011;8075;47.766;8.846;2022-11-15T20:03:05;17.73;;;16.00;;
15952;SDS011;8075;47.766;8.846;2022-11-15T20:05:31;17.90;;;16.00;;
15952;SDS011;8075;47.766;8.846;2022-11-15T20:07:57;20.15;;;18.23;;
15952;SDS011;8075;47.766;8.846;2022-11-15T20:10:23;19.33;;;17.38;;
15952;SDS011;8075;47.766;8.846;2022-11-15T20:12:49;18.20;;;16.35;;
15952;SDS011;8075;47.766;8.846;2022-11-15T20:15:15;18.38;;;16.48;;
15952;SDS011;8075;47.766;8.846;2022-11-15T20:17:41;25.63;;;20.60;;
15952;SDS011;8075;47.766;8.846;2022-11-15T20:20:07;23.85;;;21.25;;
15952;SDS011;8075;47.766;8.846;2022-11-15T20:22:35;24.42;;;21.80;;
15952;SDS011;8075;47.766;8.846;2022-11-15T20:25:01;24.60;;;22.00;;
15952;SDS011;8075;47.766;8.846;2022-11-15T20:27:27;22.60;;;20.23;;
15952;SDS011;8075;47.766;8.846;2022-11-15T20:29:53;21.43;;;19.23;;
15952;SDS011;8075;47.766;8.846;2022-11-15T20:32:19;20.10;;;18.25;;
15952;SDS011;8075;47.766;8.846;2022-11-15T20:34:45;19.75;;;17.55;;
15952;SDS011;8075;47.766;8.846;2022-11-15T20:37:11;18.13;;;16.30;;
15952;SDS011;8075;47.766;8.846;2022-11-15T20:39:37;20.88;;;18.67;;
15952;SDS011;8075;47.766;8.846;2022-11-15T20:42:04;20.25;;;18.25;;
15952;SDS011;8075;47.766;8.846;2022-11-15T20:44:30;19.88;;;17.77;;
15952;SDS011;8075;47.766;8.846;2022-11-15T20:46:56;17.92;;;16.30;;
15952;SDS011;8075;47.766;8.846;2022-11-15T20:49:22;18.63;;;16.52;;
15952;SDS011;8075;47.766;8.846;2022-11-15T20:51:48;17.17;;;15.38;;
15952;SDS011;8075;47.766;8.846;2022-11-15T20:54:14;15.48;;;13.93;;
15952;SDS011;8075;47.766;8.846;2022-11-15T20:56:40;14.02;;;12.63;;
15952;SDS011;8075;47.766;8.846;2022-11-15T20:59:06;13.38;;;12.27;;
15952;SDS011;8075;47.766;8.846;2022-11-15T21:01:32;11.77;;;10.77;;
15952;SDS011;8075;47.766;8.846;2022-11-15T21:03:58;11.90;;;10.80;;